15°C  Θερμ.
9°C  Σημείο Δρόσου
68%  Υγρασία
Θερμοκρασία
23 KM/H
14 MPH
12 KTS
340°
Βόριος Βόριο
Δυτικός

Ταχύτητα Ανέμου
Λίγα Σύννεφα
Ατμοσφαιρική πίεση 1016 (hPa) - 30 (in)
Ορατότητα 10.0 (km) - 6.2 (mi)

Τρέχουσες συνθήκες
LGTS
Location 15(km)
Metar :LGTS 162250Z 34012KT 9999 FEW025 15/09 Q1016 NOSIG
Sun 17th October 01:50 am

Airport
  Metar Aviation API Data Provided by https://www.checkwx.com/ PHP scripts by weather34.com ©2021